sensor_id;sensor_type;location;lat;lon;timestamp;P1;durP1;ratioP1;P2;durP2;ratioP2
8407;SDS011;4241;48.452;9.216;2023-07-16T00:02:00;485.90;;;258.00;;
8407;SDS011;4241;48.452;9.216;2023-07-16T00:04:27;487.17;;;260.03;;
8407;SDS011;4241;48.452;9.216;2023-07-16T00:06:54;488.67;;;261.53;;
8407;SDS011;4241;48.452;9.216;2023-07-16T00:09:22;487.37;;;260.30;;
8407;SDS011;4241;48.452;9.216;2023-07-16T00:11:49;485.80;;;255.87;;
8407;SDS011;4241;48.452;9.216;2023-07-16T00:14:17;488.30;;;262.30;;
8407;SDS011;4241;48.452;9.216;2023-07-16T00:16:44;488.97;;;257.27;;
8407;SDS011;4241;48.452;9.216;2023-07-16T00:19:11;485.77;;;247.57;;
8407;SDS011;4241;48.452;9.216;2023-07-16T00:21:37;485.07;;;242.77;;
8407;SDS011;4241;48.452;9.216;2023-07-16T00:24:05;484.97;;;240.23;;
8407;SDS011;4241;48.452;9.216;2023-07-16T00:26:33;482.80;;;235.77;;
8407;SDS011;4241;48.452;9.216;2023-07-16T00:29:00;482.57;;;236.73;;
8407;SDS011;4241;48.452;9.216;2023-07-16T00:31:27;481.13;;;234.13;;
8407;SDS011;4241;48.452;9.216;2023-07-16T00:33:54;482.23;;;236.40;;
8407;SDS011;4241;48.452;9.216;2023-07-16T00:36:20;484.00;;;239.90;;
8407;SDS011;4241;48.452;9.216;2023-07-16T00:38:47;483.00;;;237.57;;
8407;SDS011;4241;48.452;9.216;2023-07-16T00:41:15;482.90;;;236.60;;
8407;SDS011;4241;48.452;9.216;2023-07-16T00:43:43;482.90;;;238.40;;
8407;SDS011;4241;48.452;9.216;2023-07-16T00:46:10;484.00;;;239.50;;
8407;SDS011;4241;48.452;9.216;2023-07-16T00:48:38;483.63;;;239.93;;
8407;SDS011;4241;48.452;9.216;2023-07-16T00:51:06;484.87;;;240.80;;
8407;SDS011;4241;48.452;9.216;2023-07-16T00:53:33;482.80;;;238.63;;
8407;SDS011;4241;48.452;9.216;2023-07-16T00:56:00;484.23;;;241.33;;
8407;SDS011;4241;48.452;9.216;2023-07-16T00:58:27;484.67;;;242.43;;
8407;SDS011;4241;48.452;9.216;2023-07-16T01:00:55;484.63;;;240.47;;
8407;SDS011;4241;48.452;9.216;2023-07-16T01:03:22;486.57;;;239.03;;
8407;SDS011;4241;48.452;9.216;2023-07-16T01:05:51;483.83;;;237.63;;
8407;SDS011;4241;48.452;9.216;2023-07-16T01:08:27;483.17;;;237.17;;
8407;SDS011;4241;48.452;9.216;2023-07-16T01:10:58;485.93;;;238.17;;
8407;SDS011;4241;48.452;9.216;2023-07-16T01:13:25;481.83;;;233.47;;
8407;SDS011;4241;48.452;9.216;2023-07-16T01:15:52;484.63;;;237.00;;
8407;SDS011;4241;48.452;9.216;2023-07-16T01:18:21;483.47;;;233.83;;
8407;SDS011;4241;48.452;9.216;2023-07-16T01:20:48;482.57;;;231.17;;
8407;SDS011;4241;48.452;9.216;2023-07-16T01:23:26;482.70;;;233.43;;
8407;SDS011;4241;48.452;9.216;2023-07-16T01:26:15;482.83;;;232.97;;
8407;SDS011;4241;48.452;9.216;2023-07-16T01:31:35;482.50;;;230.73;;
8407;SDS011;4241;48.452;9.216;2023-07-16T01:34:03;482.83;;;233.03;;
8407;SDS011;4241;48.452;9.216;2023-07-16T01:36:32;484.00;;;234.17;;
8407;SDS011;4241;48.452;9.216;2023-07-16T01:39:01;481.70;;;228.67;;
8407;SDS011;4241;48.452;9.216;2023-07-16T01:41:28;481.83;;;228.13;;
8407;SDS011;4241;48.452;9.216;2023-07-16T01:43:55;482.40;;;231.53;;
8407;SDS011;4241;48.452;9.216;2023-07-16T01:46:24;482.03;;;229.13;;
8407;SDS011;4241;48.452;9.216;2023-07-16T01:48:51;481.73;;;227.90;;
8407;SDS011;4241;48.452;9.216;2023-07-16T01:51:18;482.33;;;227.80;;
8407;SDS011;4241;48.452;9.216;2023-07-16T01:53:45;482.37;;;229.67;;
8407;SDS011;4241;48.452;9.216;2023-07-16T01:56:12;482.90;;;228.30;;
8407;SDS011;4241;48.452;9.216;2023-07-16T01:58:39;482.27;;;226.53;;
8407;SDS011;4241;48.452;9.216;2023-07-16T02:01:06;492.80;;;236.67;;
8407;SDS011;4241;48.452;9.216;2023-07-16T02:03:34;479.60;;;221.87;;
8407;SDS011;4241;48.452;9.216;2023-07-16T02:06:01;480.70;;;222.63;;
8407;SDS011;4241;48.452;9.216;2023-07-16T02:08:28;482.60;;;226.50;;
8407;SDS011;4241;48.452;9.216;2023-07-16T02:10:55;480.87;;;226.80;;
8407;SDS011;4241;48.452;9.216;2023-07-16T02:13:22;482.73;;;228.47;;
8407;SDS011;4241;48.452;9.216;2023-07-16T02:15:49;481.33;;;226.10;;
8407;SDS011;4241;48.452;9.216;2023-07-16T02:18:15;483.63;;;228.07;;
8407;SDS011;4241;48.452;9.216;2023-07-16T02:20:44;481.17;;;222.67;;
8407;SDS011;4241;48.452;9.216;2023-07-16T02:23:11;479.03;;;218.90;;
8407;SDS011;4241;48.452;9.216;2023-07-16T02:25:38;483.27;;;228.33;;
8407;SDS011;4241;48.452;9.216;2023-07-16T02:28:05;479.93;;;222.47;;
8407;SDS011;4241;48.452;9.216;2023-07-16T02:30:32;485.33;;;228.33;;
8407;SDS011;4241;48.452;9.216;2023-07-16T02:32:59;479.80;;;223.57;;
8407;SDS011;4241;48.452;9.216;2023-07-16T02:35:25;488.43;;;235.60;;
8407;SDS011;4241;48.452;9.216;2023-07-16T02:37:54;482.40;;;225.83;;
8407;SDS011;4241;48.452;9.216;2023-07-16T02:40:21;480.47;;;222.90;;
8407;SDS011;4241;48.452;9.216;2023-07-16T02:42:48;480.27;;;220.87;;
8407;SDS011;4241;48.452;9.216;2023-07-16T02:45:15;480.90;;;222.07;;
8407;SDS011;4241;48.452;9.216;2023-07-16T02:47:42;478.57;;;218.30;;
8407;SDS011;4241;48.452;9.216;2023-07-16T02:50:09;479.00;;;219.27;;
8407;SDS011;4241;48.452;9.216;2023-07-16T02:52:36;480.73;;;218.63;;
8407;SDS011;4241;48.452;9.216;2023-07-16T02:55:05;479.97;;;218.83;;
8407;SDS011;4241;48.452;9.216;2023-07-16T02:57:32;480.30;;;219.93;;
8407;SDS011;4241;48.452;9.216;2023-07-16T02:59:59;478.23;;;212.97;;
8407;SDS011;4241;48.452;9.216;2023-07-16T03:02:26;477.97;;;216.70;;
8407;SDS011;4241;48.452;9.216;2023-07-16T03:04:52;478.30;;;218.03;;
8407;SDS011;4241;48.452;9.216;2023-07-16T03:07:19;480.03;;;219.67;;
8407;SDS011;4241;48.452;9.216;2023-07-16T03:09:47;479.90;;;218.90;;
8407;SDS011;4241;48.452;9.216;2023-07-16T03:12:15;481.80;;;218.73;;
8407;SDS011;4241;48.452;9.216;2023-07-16T03:14:42;479.03;;;216.97;;
8407;SDS011;4241;48.452;9.216;2023-07-16T03:17:09;479.40;;;219.43;;
8407;SDS011;4241;48.452;9.216;2023-07-16T03:19:36;479.93;;;218.73;;
8407;SDS011;4241;48.452;9.216;2023-07-16T03:22:04;481.30;;;218.00;;
8407;SDS011;4241;48.452;9.216;2023-07-16T03:24:32;477.57;;;214.77;;
8407;SDS011;4241;48.452;9.216;2023-07-16T03:26:59;478.20;;;214.50;;
8407;SDS011;4241;48.452;9.216;2023-07-16T03:29:27;479.90;;;221.57;;
8407;SDS011;4241;48.452;9.216;2023-07-16T03:31:54;478.70;;;215.33;;
8407;SDS011;4241;48.452;9.216;2023-07-16T03:34:20;479.83;;;219.13;;
8407;SDS011;4241;48.452;9.216;2023-07-16T03:36:48;480.30;;;221.93;;
8407;SDS011;4241;48.452;9.216;2023-07-16T03:39:15;477.87;;;214.93;;
8407;SDS011;4241;48.452;9.216;2023-07-16T03:41:42;478.27;;;215.73;;
8407;SDS011;4241;48.452;9.216;2023-07-16T03:44:09;480.63;;;220.17;;
8407;SDS011;4241;48.452;9.216;2023-07-16T03:46:38;482.10;;;223.17;;
8407;SDS011;4241;48.452;9.216;2023-07-16T03:49:06;479.87;;;218.73;;
8407;SDS011;4241;48.452;9.216;2023-07-16T03:51:33;480.60;;;217.93;;
8407;SDS011;4241;48.452;9.216;2023-07-16T03:54:00;480.50;;;219.97;;
8407;SDS011;4241;48.452;9.216;2023-07-16T03:56:27;481.00;;;219.00;;
8407;SDS011;4241;48.452;9.216;2023-07-16T03:58:54;479.57;;;217.37;;
8407;SDS011;4241;48.452;9.216;2023-07-16T04:01:20;490.93;;;230.57;;
8407;SDS011;4241;48.452;9.216;2023-07-16T04:03:49;478.63;;;216.37;;
8407;SDS011;4241;48.452;9.216;2023-07-16T04:06:15;479.67;;;217.90;;
8407;SDS011;4241;48.452;9.216;2023-07-16T04:08:42;479.43;;;218.77;;
8407;SDS011;4241;48.452;9.216;2023-07-16T04:11:09;480.33;;;218.60;;
8407;SDS011;4241;48.452;9.216;2023-07-16T04:13:36;480.63;;;219.60;;
8407;SDS011;4241;48.452;9.216;2023-07-16T04:16:03;480.43;;;221.33;;
8407;SDS011;4241;48.452;9.216;2023-07-16T04:18:30;478.80;;;216.63;;
8407;SDS011;4241;48.452;9.216;2023-07-16T04:20:58;479.30;;;217.60;;
8407;SDS011;4241;48.452;9.216;2023-07-16T04:23:26;478.43;;;216.03;;
8407;SDS011;4241;48.452;9.216;2023-07-16T04:25:53;478.30;;;216.97;;
8407;SDS011;4241;48.452;9.216;2023-07-16T04:28:21;483.80;;;222.07;;
8407;SDS011;4241;48.452;9.216;2023-07-16T04:30:48;478.10;;;214.70;;
8407;SDS011;4241;48.452;9.216;2023-07-16T04:33:15;479.33;;;217.63;;
8407;SDS011;4241;48.452;9.216;2023-07-16T04:35:44;478.90;;;217.33;;
8407;SDS011;4241;48.452;9.216;2023-07-16T04:38:12;480.33;;;219.23;;
8407;SDS011;4241;48.452;9.216;2023-07-16T04:40:39;481.97;;;219.77;;
8407;SDS011;4241;48.452;9.216;2023-07-16T04:43:06;479.37;;;218.97;;
8407;SDS011;4241;48.452;9.216;2023-07-16T04:45:33;485.73;;;225.40;;
8407;SDS011;4241;48.452;9.216;2023-07-16T04:48:00;481.13;;;220.37;;
8407;SDS011;4241;48.452;9.216;2023-07-16T04:50:27;481.07;;;220.00;;
8407;SDS011;4241;48.452;9.216;2023-07-16T04:52:54;478.63;;;214.33;;
8407;SDS011;4241;48.452;9.216;2023-07-16T04:55:22;483.53;;;219.30;;
8407;SDS011;4241;48.452;9.216;2023-07-16T04:57:49;477.67;;;211.83;;
8407;SDS011;4241;48.452;9.216;2023-07-16T05:00:18;479.43;;;214.83;;
8407;SDS011;4241;48.452;9.216;2023-07-16T05:02:45;477.87;;;214.27;;
8407;SDS011;4241;48.452;9.216;2023-07-16T05:05:12;480.67;;;218.80;;
8407;SDS011;4241;48.452;9.216;2023-07-16T05:07:39;480.20;;;215.87;;
8407;SDS011;4241;48.452;9.216;2023-07-16T05:10:07;482.67;;;220.47;;
8407;SDS011;4241;48.452;9.216;2023-07-16T05:12:35;479.97;;;216.73;;
8407;SDS011;4241;48.452;9.216;2023-07-16T05:15:02;478.67;;;216.63;;
8407;SDS011;4241;48.452;9.216;2023-07-16T05:17:30;478.87;;;215.03;;
8407;SDS011;4241;48.452;9.216;2023-07-16T05:19:56;481.80;;;219.90;;
8407;SDS011;4241;48.452;9.216;2023-07-16T05:22:23;479.37;;;216.43;;
8407;SDS011;4241;48.452;9.216;2023-07-16T05:24:50;477.90;;;214.97;;
8407;SDS011;4241;48.452;9.216;2023-07-16T05:27:17;478.17;;;214.33;;
8407;SDS011;4241;48.452;9.216;2023-07-16T05:29:45;478.40;;;214.83;;
8407;SDS011;4241;48.452;9.216;2023-07-16T05:32:13;480.33;;;215.87;;
8407;SDS011;4241;48.452;9.216;2023-07-16T05:34:40;480.60;;;219.97;;
8407;SDS011;4241;48.452;9.216;2023-07-16T05:37:06;479.23;;;216.30;;
8407;SDS011;4241;48.452;9.216;2023-07-16T05:39:33;479.83;;;219.00;;
8407;SDS011;4241;48.452;9.216;2023-07-16T05:42:00;481.30;;;221.33;;
8407;SDS011;4241;48.452;9.216;2023-07-16T05:44:27;477.60;;;216.40;;
8407;SDS011;4241;48.452;9.216;2023-07-16T05:46:56;479.33;;;215.83;;
8407;SDS011;4241;48.452;9.216;2023-07-16T05:49:23;478.87;;;217.60;;
8407;SDS011;4241;48.452;9.216;2023-07-16T05:51:50;483.43;;;223.60;;
8407;SDS011;4241;48.452;9.216;2023-07-16T05:54:17;481.30;;;220.80;;
8407;SDS011;4241;48.452;9.216;2023-07-16T05:56:44;480.43;;;220.40;;
8407;SDS011;4241;48.452;9.216;2023-07-16T05:59:11;479.93;;;220.67;;
8407;SDS011;4241;48.452;9.216;2023-07-16T06:01:37;480.77;;;221.43;;
8407;SDS011;4241;48.452;9.216;2023-07-16T06:04:08;479.17;;;219.53;;
8407;SDS011;4241;48.452;9.216;2023-07-16T06:06:35;480.50;;;220.20;;
8407;SDS011;4241;48.452;9.216;2023-07-16T06:09:02;481.50;;;222.30;;
8407;SDS011;4241;48.452;9.216;2023-07-16T06:11:29;481.50;;;223.17;;
8407;SDS011;4241;48.452;9.216;2023-07-16T06:13:56;481.17;;;224.07;;
8407;SDS011;4241;48.452;9.216;2023-07-16T06:16:23;480.87;;;223.90;;
8407;SDS011;4241;48.452;9.216;2023-07-16T06:18:50;481.70;;;223.37;;
8407;SDS011;4241;48.452;9.216;2023-07-16T06:21:18;481.60;;;223.13;;
8407;SDS011;4241;48.452;9.216;2023-07-16T06:23:45;480.83;;;220.10;;
8407;SDS011;4241;48.452;9.216;2023-07-16T06:26:12;481.50;;;224.57;;
8407;SDS011;4241;48.452;9.216;2023-07-16T06:28:38;481.63;;;221.43;;
8407;SDS011;4241;48.452;9.216;2023-07-16T06:31:05;479.70;;;223.90;;
8407;SDS011;4241;48.452;9.216;2023-07-16T06:33:32;480.20;;;221.43;;
8407;SDS011;4241;48.452;9.216;2023-07-16T06:35:59;480.33;;;221.27;;
8407;SDS011;4241;48.452;9.216;2023-07-16T06:38:27;477.93;;;219.97;;
8407;SDS011;4241;48.452;9.216;2023-07-16T06:40:55;481.27;;;223.53;;
8407;SDS011;4241;48.452;9.216;2023-07-16T06:43:21;480.33;;;222.23;;
8407;SDS011;4241;48.452;9.216;2023-07-16T06:45:48;480.60;;;224.00;;
8407;SDS011;4241;48.452;9.216;2023-07-16T06:48:15;481.47;;;224.77;;
8407;SDS011;4241;48.452;9.216;2023-07-16T06:50:42;483.47;;;227.73;;
8407;SDS011;4241;48.452;9.216;2023-07-16T06:53:09;483.03;;;226.80;;
8407;SDS011;4241;48.452;9.216;2023-07-16T06:55:37;486.20;;;233.27;;
8407;SDS011;4241;48.452;9.216;2023-07-16T06:58:04;484.07;;;233.87;;
8407;SDS011;4241;48.452;9.216;2023-07-16T07:00:31;482.30;;;228.10;;
8407;SDS011;4241;48.452;9.216;2023-07-16T07:02:58;484.30;;;234.60;;
8407;SDS011;4241;48.452;9.216;2023-07-16T07:05:25;491.70;;;240.63;;
8407;SDS011;4241;48.452;9.216;2023-07-16T07:07:52;484.00;;;233.47;;
8407;SDS011;4241;48.452;9.216;2023-07-16T07:10:19;482.83;;;231.23;;
8407;SDS011;4241;48.452;9.216;2023-07-16T07:12:47;481.87;;;230.67;;
8407;SDS011;4241;48.452;9.216;2023-07-16T07:15:14;484.87;;;237.33;;
8407;SDS011;4241;48.452;9.216;2023-07-16T07:17:41;485.03;;;235.43;;
8407;SDS011;4241;48.452;9.216;2023-07-16T07:20:11;484.67;;;235.03;;
8407;SDS011;4241;48.452;9.216;2023-07-16T07:22:39;484.93;;;239.13;;
8407;SDS011;4241;48.452;9.216;2023-07-16T07:25:06;485.97;;;239.53;;
8407;SDS011;4241;48.452;9.216;2023-07-16T07:27:33;487.03;;;241.47;;
8407;SDS011;4241;48.452;9.216;2023-07-16T07:30:01;488.13;;;247.50;;
8407;SDS011;4241;48.452;9.216;2023-07-16T07:32:28;491.57;;;252.73;;
8407;SDS011;4241;48.452;9.216;2023-07-16T07:34:55;489.50;;;251.53;;
8407;SDS011;4241;48.452;9.216;2023-07-16T07:37:22;489.07;;;252.20;;
8407;SDS011;4241;48.452;9.216;2023-07-16T07:39:51;489.10;;;251.87;;
8407;SDS011;4241;48.452;9.216;2023-07-16T07:42:18;487.10;;;248.37;;
8407;SDS011;4241;48.452;9.216;2023-07-16T07:44:45;488.57;;;248.03;;
8407;SDS011;4241;48.452;9.216;2023-07-16T07:47:14;489.67;;;250.50;;
8407;SDS011;4241;48.452;9.216;2023-07-16T07:49:41;488.17;;;245.00;;
8407;SDS011;4241;48.452;9.216;2023-07-16T07:52:08;489.53;;;248.87;;
8407;SDS011;4241;48.452;9.216;2023-07-16T07:54:35;487.33;;;248.00;;
8407;SDS011;4241;48.452;9.216;2023-07-16T07:57:02;486.47;;;241.27;;
8407;SDS011;4241;48.452;9.216;2023-07-16T07:59:30;487.77;;;243.27;;
8407;SDS011;4241;48.452;9.216;2023-07-16T08:01:57;486.10;;;242.10;;
8407;SDS011;4241;48.452;9.216;2023-07-16T08:04:27;485.03;;;240.33;;
8407;SDS011;4241;48.452;9.216;2023-07-16T08:06:55;485.10;;;241.87;;
8407;SDS011;4241;48.452;9.216;2023-07-16T08:09:22;487.70;;;246.90;;
8407;SDS011;4241;48.452;9.216;2023-07-16T08:11:49;489.20;;;253.87;;
8407;SDS011;4241;48.452;9.216;2023-07-16T08:14:16;488.50;;;251.83;;
8407;SDS011;4241;48.452;9.216;2023-07-16T08:16:43;489.33;;;251.93;;
8407;SDS011;4241;48.452;9.216;2023-07-16T08:19:09;492.17;;;261.67;;
8407;SDS011;4241;48.452;9.216;2023-07-16T08:21:38;494.87;;;264.50;;
8407;SDS011;4241;48.452;9.216;2023-07-16T08:24:04;492.23;;;265.93;;
8407;SDS011;4241;48.452;9.216;2023-07-16T08:26:31;491.47;;;267.63;;
8407;SDS011;4241;48.452;9.216;2023-07-16T08:28:58;493.07;;;271.03;;
8407;SDS011;4241;48.452;9.216;2023-07-16T08:31:26;494.60;;;273.93;;
8407;SDS011;4241;48.452;9.216;2023-07-16T08:33:53;495.50;;;274.60;;
8407;SDS011;4241;48.452;9.216;2023-07-16T08:36:20;495.40;;;278.93;;
8407;SDS011;4241;48.452;9.216;2023-07-16T08:38:48;499.13;;;288.70;;
8407;SDS011;4241;48.452;9.216;2023-07-16T08:41:14;501.30;;;291.40;;
8407;SDS011;4241;48.452;9.216;2023-07-16T08:43:41;500.03;;;297.00;;
8407;SDS011;4241;48.452;9.216;2023-07-16T08:46:11;497.70;;;295.60;;
8407;SDS011;4241;48.452;9.216;2023-07-16T08:48:38;495.97;;;290.93;;
8407;SDS011;4241;48.452;9.216;2023-07-16T08:51:06;499.37;;;295.23;;
8407;SDS011;4241;48.452;9.216;2023-07-16T08:53:35;496.90;;;287.90;;
8407;SDS011;4241;48.452;9.216;2023-07-16T08:56:04;497.67;;;290.13;;
8407;SDS011;4241;48.452;9.216;2023-07-16T08:58:30;497.27;;;288.67;;
8407;SDS011;4241;48.452;9.216;2023-07-16T09:00:58;497.83;;;289.07;;
8407;SDS011;4241;48.452;9.216;2023-07-16T09:03:26;496.47;;;290.03;;
8407;SDS011;4241;48.452;9.216;2023-07-16T09:05:53;498.67;;;295.60;;
8407;SDS011;4241;48.452;9.216;2023-07-16T09:08:20;499.37;;;296.53;;
8407;SDS011;4241;48.452;9.216;2023-07-16T09:10:53;501.10;;;303.87;;
8407;SDS011;4241;48.452;9.216;2023-07-16T09:13:22;501.50;;;305.97;;
8407;SDS011;4241;48.452;9.216;2023-07-16T09:15:52;501.40;;;310.37;;
8407;SDS011;4241;48.452;9.216;2023-07-16T09:18:19;501.67;;;313.40;;
8407;SDS011;4241;48.452;9.216;2023-07-16T09:20:47;503.37;;;322.17;;
8407;SDS011;4241;48.452;9.216;2023-07-16T09:23:16;505.10;;;331.10;;
8407;SDS011;4241;48.452;9.216;2023-07-16T09:25:43;507.73;;;331.60;;
8407;SDS011;4241;48.452;9.216;2023-07-16T09:28:11;503.23;;;323.87;;
8407;SDS011;4241;48.452;9.216;2023-07-16T09:30:40;503.57;;;323.07;;
8407;SDS011;4241;48.452;9.216;2023-07-16T09:33:10;506.67;;;327.60;;
8407;SDS011;4241;48.452;9.216;2023-07-16T09:35:39;505.20;;;321.53;;
8407;SDS011;4241;48.452;9.216;2023-07-16T09:38:07;502.13;;;314.60;;
8407;SDS011;4241;48.452;9.216;2023-07-16T09:40:35;501.10;;;315.33;;
8407;SDS011;4241;48.452;9.216;2023-07-16T09:43:02;501.90;;;313.33;;
8407;SDS011;4241;48.452;9.216;2023-07-16T09:45:29;507.37;;;317.43;;
8407;SDS011;4241;48.452;9.216;2023-07-16T09:47:58;500.63;;;312.07;;
8407;SDS011;4241;48.452;9.216;2023-07-16T09:50:26;503.03;;;319.30;;
8407;SDS011;4241;48.452;9.216;2023-07-16T09:52:55;500.50;;;315.30;;
8407;SDS011;4241;48.452;9.216;2023-07-16T09:55:22;504.00;;;323.03;;
8407;SDS011;4241;48.452;9.216;2023-07-16T09:57:51;504.93;;;321.53;;
8407;SDS011;4241;48.452;9.216;2023-07-16T10:00:21;501.67;;;317.40;;
8407;SDS011;4241;48.452;9.216;2023-07-16T10:02:51;502.17;;;319.87;;
8407;SDS011;4241;48.452;9.216;2023-07-16T10:05:24;503.97;;;325.20;;
8407;SDS011;4241;48.452;9.216;2023-07-16T10:07:51;502.00;;;321.47;;
8407;SDS011;4241;48.452;9.216;2023-07-16T10:10:20;501.37;;;315.77;;
8407;SDS011;4241;48.452;9.216;2023-07-16T10:12:54;503.73;;;320.97;;
8407;SDS011;4241;48.452;9.216;2023-07-16T10:15:24;504.63;;;320.03;;
8407;SDS011;4241;48.452;9.216;2023-07-16T10:17:52;501.70;;;315.77;;
8407;SDS011;4241;48.452;9.216;2023-07-16T10:20:29;500.87;;;316.60;;
8407;SDS011;4241;48.452;9.216;2023-07-16T10:22:57;501.70;;;319.20;;
8407;SDS011;4241;48.452;9.216;2023-07-16T10:25:25;509.63;;;330.87;;
8407;SDS011;4241;48.452;9.216;2023-07-16T10:27:55;504.27;;;327.33;;
8407;SDS011;4241;48.452;9.216;2023-07-16T10:30:22;504.97;;;332.83;;
8407;SDS011;4241;48.452;9.216;2023-07-16T10:32:50;504.97;;;333.30;;
8407;SDS011;4241;48.452;9.216;2023-07-16T10:35:17;507.00;;;336.50;;
8407;SDS011;4241;48.452;9.216;2023-07-16T10:37:48;507.43;;;342.50;;
8407;SDS011;4241;48.452;9.216;2023-07-16T10:40:15;509.10;;;349.20;;
8407;SDS011;4241;48.452;9.216;2023-07-16T10:42:42;508.97;;;353.33;;
8407;SDS011;4241;48.452;9.216;2023-07-16T10:45:11;508.90;;;352.03;;
8407;SDS011;4241;48.452;9.216;2023-07-16T10:47:40;509.57;;;352.77;;
8407;SDS011;4241;48.452;9.216;2023-07-16T10:50:16;506.13;;;345.97;;
8407;SDS011;4241;48.452;9.216;2023-07-16T10:52:45;522.33;;;366.53;;
8407;SDS011;4241;48.452;9.216;2023-07-16T10:55:13;508.23;;;355.30;;
8407;SDS011;4241;48.452;9.216;2023-07-16T10:57:40;506.90;;;350.20;;
8407;SDS011;4241;48.452;9.216;2023-07-16T11:00:09;508.17;;;358.13;;
8407;SDS011;4241;48.452;9.216;2023-07-16T11:02:39;508.13;;;351.33;;
8407;SDS011;4241;48.452;9.216;2023-07-16T11:05:09;507.53;;;351.53;;
8407;SDS011;4241;48.452;9.216;2023-07-16T11:07:36;510.43;;;351.53;;
8407;SDS011;4241;48.452;9.216;2023-07-16T11:10:03;493.10;;;336.70;;
8407;SDS011;4241;48.452;9.216;2023-07-16T11:12:31;506.10;;;346.73;;
8407;SDS011;4241;48.452;9.216;2023-07-16T11:14:58;506.80;;;349.43;;
8407;SDS011;4241;48.452;9.216;2023-07-16T11:17:25;506.67;;;349.13;;
8407;SDS011;4241;48.452;9.216;2023-07-16T11:19:52;506.63;;;350.37;;
8407;SDS011;4241;48.452;9.216;2023-07-16T11:22:24;505.30;;;344.93;;
8407;SDS011;4241;48.452;9.216;2023-07-16T11:24:51;507.43;;;346.83;;
8407;SDS011;4241;48.452;9.216;2023-07-16T11:27:19;511.20;;;351.83;;
8407;SDS011;4241;48.452;9.216;2023-07-16T11:29:48;509.43;;;350.00;;
8407;SDS011;4241;48.452;9.216;2023-07-16T11:32:25;505.47;;;343.60;;
8407;SDS011;4241;48.452;9.216;2023-07-16T11:34:53;510.10;;;345.10;;
8407;SDS011;4241;48.452;9.216;2023-07-16T11:37:21;504.07;;;341.30;;
8407;SDS011;4241;48.452;9.216;2023-07-16T11:39:48;507.90;;;346.87;;
8407;SDS011;4241;48.452;9.216;2023-07-16T11:42:18;507.23;;;346.00;;
8407;SDS011;4241;48.452;9.216;2023-07-16T11:44:50;502.93;;;341.87;;
8407;SDS011;4241;48.452;9.216;2023-07-16T11:47:17;506.93;;;350.87;;
8407;SDS011;4241;48.452;9.216;2023-07-16T11:49:44;503.63;;;343.20;;
8407;SDS011;4241;48.452;9.216;2023-07-16T11:52:11;507.30;;;353.83;;
8407;SDS011;4241;48.452;9.216;2023-07-16T11:54:38;505.17;;;352.10;;
8407;SDS011;4241;48.452;9.216;2023-07-16T11:57:05;505.60;;;354.43;;
8407;SDS011;4241;48.452;9.216;2023-07-16T11:59:32;506.33;;;353.30;;
8407;SDS011;4241;48.452;9.216;2023-07-16T12:02:01;503.73;;;350.97;;
8407;SDS011;4241;48.452;9.216;2023-07-16T12:04:28;509.13;;;360.73;;
8407;SDS011;4241;48.452;9.216;2023-07-16T12:06:55;507.87;;;357.67;;
8407;SDS011;4241;48.452;9.216;2023-07-16T12:09:22;506.70;;;359.40;;
8407;SDS011;4241;48.452;9.216;2023-07-16T12:11:49;508.83;;;362.80;;
8407;SDS011;4241;48.452;9.216;2023-07-16T12:14:16;509.07;;;367.93;;
8407;SDS011;4241;48.452;9.216;2023-07-16T12:16:43;509.73;;;372.33;;
8407;SDS011;4241;48.452;9.216;2023-07-16T12:19:11;511.20;;;376.77;;
8407;SDS011;4241;48.452;9.216;2023-07-16T12:21:38;507.63;;;371.40;;
8407;SDS011;4241;48.452;9.216;2023-07-16T12:24:05;512.97;;;380.80;;
8407;SDS011;4241;48.452;9.216;2023-07-16T12:26:32;510.70;;;381.00;;
8407;SDS011;4241;48.452;9.216;2023-07-16T12:28:59;511.50;;;385.33;;
8407;SDS011;4241;48.452;9.216;2023-07-16T12:31:29;510.60;;;383.70;;
8407;SDS011;4241;48.452;9.216;2023-07-16T12:33:57;514.20;;;392.17;;
8407;SDS011;4241;48.452;9.216;2023-07-16T12:36:26;512.70;;;389.50;;
8407;SDS011;4241;48.452;9.216;2023-07-16T12:38:53;513.07;;;391.90;;
8407;SDS011;4241;48.452;9.216;2023-07-16T12:41:20;513.20;;;392.17;;
8407;SDS011;4241;48.452;9.216;2023-07-16T12:43:47;510.97;;;389.37;;
8407;SDS011;4241;48.452;9.216;2023-07-16T12:46:14;512.43;;;387.43;;
8407;SDS011;4241;48.452;9.216;2023-07-16T12:48:40;511.03;;;385.93;;
8407;SDS011;4241;48.452;9.216;2023-07-16T12:51:08;512.23;;;390.10;;
8407;SDS011;4241;48.452;9.216;2023-07-16T12:53:36;511.70;;;385.43;;
8407;SDS011;4241;48.452;9.216;2023-07-16T12:56:03;509.10;;;380.30;;
8407;SDS011;4241;48.452;9.216;2023-07-16T12:58:30;508.93;;;375.37;;
8407;SDS011;4241;48.452;9.216;2023-07-16T13:00:57;510.23;;;379.70;;
8407;SDS011;4241;48.452;9.216;2023-07-16T13:03:24;509.30;;;374.33;;
8407;SDS011;4241;48.452;9.216;2023-07-16T13:05:51;509.00;;;374.03;;
8407;SDS011;4241;48.452;9.216;2023-07-16T13:08:17;508.40;;;374.73;;
8407;SDS011;4241;48.452;9.216;2023-07-16T13:10:45;509.83;;;374.43;;
8407;SDS011;4241;48.452;9.216;2023-07-16T13:13:12;509.17;;;368.60;;
8407;SDS011;4241;48.452;9.216;2023-07-16T13:15:39;513.50;;;377.37;;
8407;SDS011;4241;48.452;9.216;2023-07-16T13:18:07;507.93;;;366.67;;
8407;SDS011;4241;48.452;9.216;2023-07-16T13:20:36;508.70;;;366.60;;
8407;SDS011;4241;48.452;9.216;2023-07-16T13:23:03;510.73;;;367.63;;
8407;SDS011;4241;48.452;9.216;2023-07-16T13:25:30;514.93;;;370.37;;
8407;SDS011;4241;48.452;9.216;2023-07-16T13:27:58;507.53;;;363.03;;
8407;SDS011;4241;48.452;9.216;2023-07-16T13:30:25;510.33;;;362.93;;
8407;SDS011;4241;48.452;9.216;2023-07-16T13:32:52;508.00;;;362.13;;
8407;SDS011;4241;48.452;9.216;2023-07-16T13:35:21;510.70;;;376.27;;
8407;SDS011;4241;48.452;9.216;2023-07-16T13:37:48;511.47;;;374.97;;
8407;SDS011;4241;48.452;9.216;2023-07-16T13:40:15;507.63;;;368.47;;
8407;SDS011;4241;48.452;9.216;2023-07-16T13:42:44;508.93;;;372.10;;
8407;SDS011;4241;48.452;9.216;2023-07-16T13:45:13;510.63;;;380.67;;
8407;SDS011;4241;48.452;9.216;2023-07-16T13:47:39;510.00;;;378.37;;
8407;SDS011;4241;48.452;9.216;2023-07-16T13:50:07;512.60;;;384.93;;
8407;SDS011;4241;48.452;9.216;2023-07-16T13:52:34;511.20;;;384.73;;
8407;SDS011;4241;48.452;9.216;2023-07-16T13:55:01;509.83;;;383.50;;
8407;SDS011;4241;48.452;9.216;2023-07-16T13:57:29;512.63;;;388.83;;
8407;SDS011;4241;48.452;9.216;2023-07-16T13:59:56;510.80;;;383.20;;
8407;SDS011;4241;48.452;9.216;2023-07-16T14:02:24;511.07;;;384.60;;
8407;SDS011;4241;48.452;9.216;2023-07-16T14:04:51;513.87;;;392.03;;
8407;SDS011;4241;48.452;9.216;2023-07-16T14:07:18;511.30;;;386.93;;
8407;SDS011;4241;48.452;9.216;2023-07-16T14:09:45;511.67;;;387.30;;
8407;SDS011;4241;48.452;9.216;2023-07-16T14:12:12;513.90;;;389.27;;
8407;SDS011;4241;48.452;9.216;2023-07-16T14:14:39;509.53;;;385.60;;
8407;SDS011;4241;48.452;9.216;2023-07-16T14:17:06;512.40;;;386.77;;
8407;SDS011;4241;48.452;9.216;2023-07-16T14:19:34;510.00;;;381.73;;
8407;SDS011;4241;48.452;9.216;2023-07-16T14:22:02;511.33;;;383.67;;
8407;SDS011;4241;48.452;9.216;2023-07-16T14:24:30;512.13;;;388.10;;
8407;SDS011;4241;48.452;9.216;2023-07-16T14:26:57;510.87;;;385.33;;